Schedule Details


Flight Number: CTN412
Departure: Kastela (LDSP) at 14:45
Arrival: Frankfurt/main (EDDF) at 16:35
Route: ZDA DCT BUSET DCT VEKEN DCT ERKIR UQ863 TEKSI/N0450F300 UQ863 ETASA T163 PSA

Weather Information
LDSP 172230Z AUTO 34001KT CAVOK 21/13 Q1017
EDDF 172220Z VRB02KT CAVOK 22/17 Q1013 NOSIG
Schedule Frequency

Route Map